sensor_id;sensor_type;location;lat;lon;timestamp;pressure;altitude;pressure_sealevel;temperature;humidity
10464;BME280;5279;42.048;24.638;2022-11-15T00:01:17;98144.84;;;6.73;100.00
10464;BME280;5279;42.048;24.638;2022-11-15T00:03:44;98144.22;;;6.69;100.00
10464;BME280;5279;42.048;24.638;2022-11-15T00:06:14;98144.78;;;6.62;100.00
10464;BME280;5279;42.048;24.638;2022-11-15T00:08:42;98152.03;;;6.71;100.00
10464;BME280;5279;42.048;24.638;2022-11-15T00:11:11;98137.06;;;6.71;100.00
10464;BME280;5279;42.048;24.638;2022-11-15T00:13:40;98136.09;;;6.85;100.00
10464;BME280;5279;42.048;24.638;2022-11-15T00:16:08;98135.28;;;6.72;100.00
10464;BME280;5279;42.048;24.638;2022-11-15T00:18:54;98134.31;;;6.73;100.00
10464;BME280;5279;42.048;24.638;2022-11-15T00:21:22;98146.34;;;6.64;100.00
10464;BME280;5279;42.048;24.638;2022-11-15T00:23:49;98139.22;;;6.41;100.00
10464;BME280;5279;42.048;24.638;2022-11-15T00:26:16;98135.31;;;6.46;100.00
10464;BME280;5279;42.048;24.638;2022-11-15T00:28:45;98139.81;;;6.44;100.00
10464;BME280;5279;42.048;24.638;2022-11-15T00:31:13;98139.28;;;6.52;100.00
10464;BME280;5279;42.048;24.638;2022-11-15T00:33:42;98126.56;;;6.58;100.00
10464;BME280;5279;42.048;24.638;2022-11-15T00:36:10;98135.16;;;6.73;100.00
10464;BME280;5279;42.048;24.638;2022-11-15T00:38:39;98134.44;;;6.84;100.00
10464;BME280;5279;42.048;24.638;2022-11-15T00:41:06;98126.97;;;6.78;100.00
10464;BME280;5279;42.048;24.638;2022-11-15T00:43:33;98126.19;;;6.76;100.00
10464;BME280;5279;42.048;24.638;2022-11-15T00:46:02;98129.69;;;6.64;100.00
10464;BME280;5279;42.048;24.638;2022-11-15T00:48:30;98123.56;;;6.76;100.00
10464;BME280;5279;42.048;24.638;2022-11-15T00:50:57;98124.16;;;6.43;100.00
10464;BME280;5279;42.048;24.638;2022-11-15T00:53:25;98113.94;;;6.26;100.00
10464;BME280;5279;42.048;24.638;2022-11-15T00:55:52;98125.50;;;6.48;100.00
10464;BME280;5279;42.048;24.638;2022-11-15T00:58:19;98137.72;;;6.49;100.00
10464;BME280;5279;42.048;24.638;2022-11-15T01:00:46;98132.47;;;6.49;100.00
10464;BME280;5279;42.048;24.638;2022-11-15T01:03:14;98132.25;;;6.52;100.00
10464;BME280;5279;42.048;24.638;2022-11-15T01:05:42;98126.97;;;6.52;100.00
10464;BME280;5279;42.048;24.638;2022-11-15T01:08:12;98122.78;;;6.37;100.00
10464;BME280;5279;42.048;24.638;2022-11-15T01:10:39;98128.88;;;6.50;100.00
10464;BME280;5279;42.048;24.638;2022-11-15T01:13:07;98130.34;;;6.54;100.00
10464;BME280;5279;42.048;24.638;2022-11-15T01:15:34;98127.81;;;6.66;100.00
10464;BME280;5279;42.048;24.638;2022-11-15T01:18:01;98121.47;;;6.81;100.00
10464;BME280;5279;42.048;24.638;2022-11-15T01:20:29;98114.69;;;6.89;100.00
10464;BME280;5279;42.048;24.638;2022-11-15T01:22:56;98117.53;;;6.99;100.00
10464;BME280;5279;42.048;24.638;2022-11-15T01:25:23;98122.63;;;7.13;100.00
10464;BME280;5279;42.048;24.638;2022-11-15T01:27:50;98111.88;;;7.16;100.00
10464;BME280;5279;42.048;24.638;2022-11-15T01:30:19;98110.19;;;7.15;100.00
10464;BME280;5279;42.048;24.638;2022-11-15T01:32:47;98105.13;;;6.76;100.00
10464;BME280;5279;42.048;24.638;2022-11-15T01:35:14;98101.06;;;6.72;100.00
10464;BME280;5279;42.048;24.638;2022-11-15T01:37:42;98110.31;;;6.77;100.00
10464;BME280;5279;42.048;24.638;2022-11-15T01:40:10;98104.78;;;6.93;100.00
10464;BME280;5279;42.048;24.638;2022-11-15T01:42:37;98105.34;;;7.09;100.00
10464;BME280;5279;42.048;24.638;2022-11-15T01:45:05;98099.09;;;6.99;100.00
10464;BME280;5279;42.048;24.638;2022-11-15T01:47:36;98099.81;;;7.01;100.00
10464;BME280;5279;42.048;24.638;2022-11-15T01:50:10;98096.06;;;6.80;100.00
10464;BME280;5279;42.048;24.638;2022-11-15T01:52:39;98084.25;;;6.85;100.00
10464;BME280;5279;42.048;24.638;2022-11-15T01:55:12;98097.00;;;6.79;100.00
10464;BME280;5279;42.048;24.638;2022-11-15T01:57:43;98095.50;;;6.87;100.00
10464;BME280;5279;42.048;24.638;2022-11-15T02:00:13;98100.31;;;6.70;100.00
10464;BME280;5279;42.048;24.638;2022-11-15T02:02:40;98102.28;;;6.79;100.00
10464;BME280;5279;42.048;24.638;2022-11-15T02:05:08;98102.47;;;6.88;100.00
10464;BME280;5279;42.048;24.638;2022-11-15T02:07:35;98106.78;;;7.02;100.00
10464;BME280;5279;42.048;24.638;2022-11-15T02:10:08;98111.47;;;7.09;100.00
10464;BME280;5279;42.048;24.638;2022-11-15T02:12:35;98107.06;;;7.10;100.00
10464;BME280;5279;42.048;24.638;2022-11-15T02:15:05;98105.00;;;6.90;100.00
10464;BME280;5279;42.048;24.638;2022-11-15T02:17:44;98107.34;;;6.82;100.00
10464;BME280;5279;42.048;24.638;2022-11-15T02:20:40;98109.75;;;6.85;100.00
10464;BME280;5279;42.048;24.638;2022-11-15T02:26:20;98093.47;;;6.67;100.00
10464;BME280;5279;42.048;24.638;2022-11-15T02:28:58;98090.09;;;6.78;100.00
10464;BME280;5279;42.048;24.638;2022-11-15T02:31:33;98108.22;;;6.57;100.00
10464;BME280;5279;42.048;24.638;2022-11-15T02:34:06;98103.59;;;6.48;100.00
10464;BME280;5279;42.048;24.638;2022-11-15T02:36:46;98101.50;;;6.40;100.00
10464;BME280;5279;42.048;24.638;2022-11-15T02:39:20;98092.84;;;6.38;100.00
10464;BME280;5279;42.048;24.638;2022-11-15T02:41:54;98100.16;;;6.47;100.00
10464;BME280;5279;42.048;24.638;2022-11-15T02:44:24;98085.50;;;6.43;100.00
10464;BME280;5279;42.048;24.638;2022-11-15T02:46:56;98082.38;;;6.26;100.00
10464;BME280;5279;42.048;24.638;2022-11-15T02:49:45;98087.19;;;5.94;100.00
10464;BME280;5279;42.048;24.638;2022-11-15T02:52:15;98096.44;;;5.87;100.00
10464;BME280;5279;42.048;24.638;2022-11-15T02:54:43;98097.09;;;6.03;100.00
10464;BME280;5279;42.048;24.638;2022-11-15T02:57:13;98093.94;;;5.98;100.00
10464;BME280;5279;42.048;24.638;2022-11-15T03:00:00;98078.31;;;5.82;100.00
10464;BME280;5279;42.048;24.638;2022-11-15T03:02:42;98092.25;;;5.97;100.00
10464;BME280;5279;42.048;24.638;2022-11-15T03:05:17;98094.16;;;5.95;100.00
10464;BME280;5279;42.048;24.638;2022-11-15T03:07:54;98082.25;;;6.02;100.00
10464;BME280;5279;42.048;24.638;2022-11-15T03:10:26;98072.91;;;5.98;100.00
10464;BME280;5279;42.048;24.638;2022-11-15T03:13:05;98089.91;;;6.05;100.00
10464;BME280;5279;42.048;24.638;2022-11-15T03:15:37;98081.09;;;6.06;100.00
10464;BME280;5279;42.048;24.638;2022-11-15T03:18:18;98099.94;;;6.00;100.00
10464;BME280;5279;42.048;24.638;2022-11-15T03:20:46;98086.75;;;5.87;100.00
10464;BME280;5279;42.048;24.638;2022-11-15T03:23:14;98088.84;;;5.82;100.00
10464;BME280;5279;42.048;24.638;2022-11-15T03:25:46;98095.59;;;5.99;100.00
10464;BME280;5279;42.048;24.638;2022-11-15T03:28:19;98088.25;;;5.91;100.00
10464;BME280;5279;42.048;24.638;2022-11-15T03:30:48;98088.25;;;5.91;100.00
10464;BME280;5279;42.048;24.638;2022-11-15T03:33:18;98080.19;;;5.68;100.00
10464;BME280;5279;42.048;24.638;2022-11-15T03:35:47;98091.56;;;5.81;100.00
10464;BME280;5279;42.048;24.638;2022-11-15T03:38:19;98087.72;;;5.86;100.00
10464;BME280;5279;42.048;24.638;2022-11-15T03:40:55;98081.25;;;5.78;100.00
10464;BME280;5279;42.048;24.638;2022-11-15T03:43:37;98069.06;;;5.77;100.00
10464;BME280;5279;42.048;24.638;2022-11-15T03:46:07;98076.06;;;5.64;100.00
10464;BME280;5279;42.048;24.638;2022-11-15T03:48:41;98074.53;;;5.74;100.00
10464;BME280;5279;42.048;24.638;2022-11-15T03:51:10;98067.78;;;5.70;100.00
10464;BME280;5279;42.048;24.638;2022-11-15T03:53:37;98067.47;;;5.62;100.00
10464;BME280;5279;42.048;24.638;2022-11-15T03:56:05;98066.69;;;5.60;100.00
10464;BME280;5279;42.048;24.638;2022-11-15T03:58:32;98058.00;;;5.72;100.00
10464;BME280;5279;42.048;24.638;2022-11-15T04:00:59;98050.09;;;5.46;100.00
10464;BME280;5279;42.048;24.638;2022-11-15T04:03:26;98062.88;;;5.38;100.00
10464;BME280;5279;42.048;24.638;2022-11-15T04:05:54;98058.50;;;5.51;100.00
10464;BME280;5279;42.048;24.638;2022-11-15T04:08:21;98054.72;;;5.56;100.00
10464;BME280;5279;42.048;24.638;2022-11-15T04:10:48;98049.78;;;5.64;100.00
10464;BME280;5279;42.048;24.638;2022-11-15T04:13:15;98049.59;;;5.67;100.00
10464;BME280;5279;42.048;24.638;2022-11-15T04:15:42;98049.28;;;5.59;100.00
10464;BME280;5279;42.048;24.638;2022-11-15T04:18:09;98047.13;;;5.51;100.00
10464;BME280;5279;42.048;24.638;2022-11-15T04:20:36;98039.78;;;5.43;100.00
10464;BME280;5279;42.048;24.638;2022-11-15T04:23:23;98037.47;;;5.51;100.00
10464;BME280;5279;42.048;24.638;2022-11-15T04:26:09;98030.31;;;5.53;100.00
10464;BME280;5279;42.048;24.638;2022-11-15T04:28:37;98040.63;;;5.57;100.00
10464;BME280;5279;42.048;24.638;2022-11-15T04:31:24;98035.25;;;5.45;100.00
10464;BME280;5279;42.048;24.638;2022-11-15T04:33:52;98034.56;;;5.56;100.00
10464;BME280;5279;42.048;24.638;2022-11-15T04:36:20;98026.78;;;5.67;100.00
10464;BME280;5279;42.048;24.638;2022-11-15T04:39:06;98037.06;;;5.58;100.00
10464;BME280;5279;42.048;24.638;2022-11-15T04:41:37;98041.28;;;5.73;100.00
10464;BME280;5279;42.048;24.638;2022-11-15T04:44:06;98026.34;;;5.73;100.00
10464;BME280;5279;42.048;24.638;2022-11-15T04:46:33;98034.13;;;5.75;100.00
10464;BME280;5279;42.048;24.638;2022-11-15T04:49:00;98045.91;;;5.82;100.00
10464;BME280;5279;42.048;24.638;2022-11-15T04:51:27;98042.16;;;5.86;100.00
10464;BME280;5279;42.048;24.638;2022-11-15T04:53:54;98034.53;;;5.69;100.00
10464;BME280;5279;42.048;24.638;2022-11-15T04:56:22;98044.44;;;5.78;100.00
10464;BME280;5279;42.048;24.638;2022-11-15T04:58:49;98036.91;;;5.86;100.00
10464;BME280;5279;42.048;24.638;2022-11-15T05:01:16;98028.28;;;5.96;100.00
10464;BME280;5279;42.048;24.638;2022-11-15T05:03:44;98022.91;;;5.98;100.00
10464;BME280;5279;42.048;24.638;2022-11-15T05:06:28;98022.03;;;5.85;100.00
10464;BME280;5279;42.048;24.638;2022-11-15T05:08:58;98048.34;;;5.85;100.00
10464;BME280;5279;42.048;24.638;2022-11-15T05:11:27;98038.38;;;5.90;100.00
10464;BME280;5279;42.048;24.638;2022-11-15T05:13:54;98032.38;;;5.88;100.00
10464;BME280;5279;42.048;24.638;2022-11-15T05:16:21;98030.25;;;5.93;100.00
10464;BME280;5279;42.048;24.638;2022-11-15T05:18:50;98029.19;;;5.83;100.00
10464;BME280;5279;42.048;24.638;2022-11-15T05:21:18;98026.19;;;5.89;100.00
10464;BME280;5279;42.048;24.638;2022-11-15T05:23:45;98027.84;;;5.90;100.00
10464;BME280;5279;42.048;24.638;2022-11-15T05:26:12;98026.19;;;5.89;100.00
10464;BME280;5279;42.048;24.638;2022-11-15T05:28:40;98021.31;;;5.83;100.00
10464;BME280;5279;42.048;24.638;2022-11-15T05:31:09;98035.72;;;5.90;100.00
10464;BME280;5279;42.048;24.638;2022-11-15T05:33:37;98037.09;;;5.83;100.00
10464;BME280;5279;42.048;24.638;2022-11-15T05:36:07;98036.50;;;5.92;100.00
10464;BME280;5279;42.048;24.638;2022-11-15T05:38:36;98028.25;;;5.71;100.00
10464;BME280;5279;42.048;24.638;2022-11-15T05:41:04;98026.91;;;5.91;100.00
10464;BME280;5279;42.048;24.638;2022-11-15T05:43:32;98048.25;;;5.99;100.00
10464;BME280;5279;42.048;24.638;2022-11-15T05:46:04;98037.72;;;5.99;100.00
10464;BME280;5279;42.048;24.638;2022-11-15T05:48:32;98047.22;;;5.89;100.00
10464;BME280;5279;42.048;24.638;2022-11-15T05:50:59;98044.69;;;5.87;100.00
10464;BME280;5279;42.048;24.638;2022-11-15T05:53:27;98049.66;;;5.92;100.00
10464;BME280;5279;42.048;24.638;2022-11-15T05:55:54;98047.41;;;6.11;100.00
10464;BME280;5279;42.048;24.638;2022-11-15T05:58:21;98046.56;;;6.23;100.00
10464;BME280;5279;42.048;24.638;2022-11-15T06:00:48;98039.72;;;6.33;100.00
10464;BME280;5279;42.048;24.638;2022-11-15T06:03:16;98053.91;;;6.43;100.00
10464;BME280;5279;42.048;24.638;2022-11-15T06:05:43;98041.38;;;6.59;100.00
10464;BME280;5279;42.048;24.638;2022-11-15T06:08:10;98051.53;;;6.77;100.00
10464;BME280;5279;42.048;24.638;2022-11-15T06:10:37;98059.19;;;6.80;100.00
10464;BME280;5279;42.048;24.638;2022-11-15T06:13:04;98050.47;;;7.03;100.00
10464;BME280;5279;42.048;24.638;2022-11-15T06:15:32;98052.78;;;7.07;100.00
10464;BME280;5279;42.048;24.638;2022-11-15T06:17:59;98050.47;;;7.03;100.00
10464;BME280;5279;42.048;24.638;2022-11-15T06:20:29;98059.41;;;7.13;100.00
10464;BME280;5279;42.048;24.638;2022-11-15T06:22:57;98053.94;;;7.27;100.00
10464;BME280;5279;42.048;24.638;2022-11-15T06:25:24;98053.69;;;7.54;100.00
10464;BME280;5279;42.048;24.638;2022-11-15T06:27:52;98047.38;;;7.56;100.00
10464;BME280;5279;42.048;24.638;2022-11-15T06:30:19;98044.81;;;7.90;97.86
10464;BME280;5279;42.048;24.638;2022-11-15T06:32:49;98050.38;;;8.42;96.93
10464;BME280;5279;42.048;24.638;2022-11-15T06:35:16;98038.81;;;8.88;91.02
10464;BME280;5279;42.048;24.638;2022-11-15T06:37:44;98049.88;;;9.36;89.78
10464;BME280;5279;42.048;24.638;2022-11-15T06:40:11;98047.66;;;9.72;82.84
10464;BME280;5279;42.048;24.638;2022-11-15T06:42:38;98049.72;;;9.89;75.62
10464;BME280;5279;42.048;24.638;2022-11-15T06:45:06;98044.06;;;10.15;76.87
10464;BME280;5279;42.048;24.638;2022-11-15T06:47:33;98051.47;;;10.51;81.67
10464;BME280;5279;42.048;24.638;2022-11-15T06:49:59;98050.41;;;10.63;79.92
10464;BME280;5279;42.048;24.638;2022-11-15T06:52:27;98045.22;;;10.62;71.23
10464;BME280;5279;42.048;24.638;2022-11-15T06:54:59;98041.56;;;10.53;69.87
10464;BME280;5279;42.048;24.638;2022-11-15T06:57:26;98037.78;;;10.46;70.57
10464;BME280;5279;42.048;24.638;2022-11-15T06:59:53;98038.38;;;10.59;72.32
10464;BME280;5279;42.048;24.638;2022-11-15T07:02:20;98042.03;;;10.68;74.33
10464;BME280;5279;42.048;24.638;2022-11-15T07:04:48;98033.72;;;10.91;75.99
10464;BME280;5279;42.048;24.638;2022-11-15T07:07:14;98026.78;;;11.10;75.28
10464;BME280;5279;42.048;24.638;2022-11-15T07:09:41;98029.91;;;11.43;71.61
10464;BME280;5279;42.048;24.638;2022-11-15T07:12:10;98028.50;;;11.68;73.68
10464;BME280;5279;42.048;24.638;2022-11-15T07:14:37;98024.31;;;11.94;73.60
10464;BME280;5279;42.048;24.638;2022-11-15T07:17:04;98026.97;;;11.94;70.99
10464;BME280;5279;42.048;24.638;2022-11-15T07:19:31;98016.41;;;12.22;68.90
10464;BME280;5279;42.048;24.638;2022-11-15T07:21:58;98027.38;;;12.46;68.97
10464;BME280;5279;42.048;24.638;2022-11-15T07:24:25;98025.75;;;12.63;65.38
10464;BME280;5279;42.048;24.638;2022-11-15T07:26:52;98019.00;;;12.68;64.57
10464;BME280;5279;42.048;24.638;2022-11-15T07:29:29;98033.47;;;12.83;65.62
10464;BME280;5279;42.048;24.638;2022-11-15T07:31:55;98039.91;;;13.18;65.37
10464;BME280;5279;42.048;24.638;2022-11-15T07:34:23;98027.44;;;13.53;62.30
10464;BME280;5279;42.048;24.638;2022-11-15T07:36:50;98028.97;;;13.74;60.94
10464;BME280;5279;42.048;24.638;2022-11-15T07:39:17;98030.69;;;14.00;61.74
10464;BME280;5279;42.048;24.638;2022-11-15T07:41:44;98025.59;;;14.33;60.11
10464;BME280;5279;42.048;24.638;2022-11-15T07:44:17;98026.59;;;14.65;56.92
10464;BME280;5279;42.048;24.638;2022-11-15T07:46:46;98026.03;;;14.54;57.50
10464;BME280;5279;42.048;24.638;2022-11-15T07:49:12;98023.34;;;14.80;56.25
10464;BME280;5279;42.048;24.638;2022-11-15T07:51:39;98019.53;;;14.90;56.64
10464;BME280;5279;42.048;24.638;2022-11-15T07:54:06;98017.50;;;14.84;56.80
10464;BME280;5279;42.048;24.638;2022-11-15T07:56:33;98018.09;;;15.12;56.15
10464;BME280;5279;42.048;24.638;2022-11-15T07:59:00;98019.06;;;15.03;57.73
10464;BME280;5279;42.048;24.638;2022-11-15T08:01:27;98017.38;;;15.02;59.72
10464;BME280;5279;42.048;24.638;2022-11-15T08:03:55;98008.97;;;15.22;58.87
10464;BME280;5279;42.048;24.638;2022-11-15T08:06:22;98003.28;;;15.25;57.72
10464;BME280;5279;42.048;24.638;2022-11-15T08:08:49;98002.69;;;15.56;56.58
10464;BME280;5279;42.048;24.638;2022-11-15T08:11:16;98002.38;;;15.83;56.01
10464;BME280;5279;42.048;24.638;2022-11-15T08:13:42;97997.47;;;15.46;57.88
10464;BME280;5279;42.048;24.638;2022-11-15T08:16:09;98001.88;;;15.79;55.78
10464;BME280;5279;42.048;24.638;2022-11-15T08:18:37;98004.19;;;16.07;56.44
10464;BME280;5279;42.048;24.638;2022-11-15T08:21:05;98009.34;;;15.60;57.25
10464;BME280;5279;42.048;24.638;2022-11-15T08:23:32;98005.38;;;15.80;57.01
10464;BME280;5279;42.048;24.638;2022-11-15T08:26:00;98001.66;;;16.13;55.20
10464;BME280;5279;42.048;24.638;2022-11-15T08:28:28;97998.22;;;16.52;53.74
10464;BME280;5279;42.048;24.638;2022-11-15T08:30:55;97995.34;;;17.08;52.13
10464;BME280;5279;42.048;24.638;2022-11-15T08:33:22;97995.72;;;17.59;51.23
10464;BME280;5279;42.048;24.638;2022-11-15T08:35:48;97992.59;;;17.92;49.60
10464;BME280;5279;42.048;24.638;2022-11-15T08:38:17;97993.59;;;18.73;48.31
10464;BME280;5279;42.048;24.638;2022-11-15T08:40:50;97985.81;;;19.43;45.83
10464;BME280;5279;42.048;24.638;2022-11-15T08:43:17;97989.84;;;20.24;43.96
10464;BME280;5279;42.048;24.638;2022-11-15T08:45:44;97986.03;;;20.73;42.32
10464;BME280;5279;42.048;24.638;2022-11-15T08:48:11;97986.13;;;21.28;40.48
10464;BME280;5279;42.048;24.638;2022-11-15T08:50:38;97975.66;;;22.05;39.35
10464;BME280;5279;42.048;24.638;2022-11-15T08:53:05;97978.91;;;22.85;37.94
10464;BME280;5279;42.048;24.638;2022-11-15T08:55:38;97974.63;;;23.54;36.74
10464;BME280;5279;42.048;24.638;2022-11-15T08:58:05;97972.41;;;23.44;36.47
10464;BME280;5279;42.048;24.638;2022-11-15T09:00:32;97954.56;;;23.92;35.51
10464;BME280;5279;42.048;24.638;2022-11-15T09:02:59;97953.75;;;24.41;34.83
10464;BME280;5279;42.048;24.638;2022-11-15T09:05:26;97950.53;;;24.51;33.53
10464;BME280;5279;42.048;24.638;2022-11-15T09:07:53;97952.75;;;24.97;33.98
10464;BME280;5279;42.048;24.638;2022-11-15T09:10:21;97944.22;;;24.75;32.65
10464;BME280;5279;42.048;24.638;2022-11-15T09:12:49;97938.06;;;25.05;33.48
10464;BME280;5279;42.048;24.638;2022-11-15T09:15:16;97943.69;;;25.51;32.11
10464;BME280;5279;42.048;24.638;2022-11-15T09:17:43;97933.03;;;25.38;31.21
10464;BME280;5279;42.048;24.638;2022-11-15T09:20:10;97929.19;;;25.98;30.76
10464;BME280;5279;42.048;24.638;2022-11-15T09:22:37;97931.00;;;26.16;29.97
10464;BME280;5279;42.048;24.638;2022-11-15T09:25:06;97923.59;;;25.70;30.99
10464;BME280;5279;42.048;24.638;2022-11-15T09:27:33;97916.16;;;25.77;30.57
10464;BME280;5279;42.048;24.638;2022-11-15T09:30:01;97899.66;;;26.72;29.92
10464;BME280;5279;42.048;24.638;2022-11-15T09:32:29;97906.06;;;27.05;29.68
10464;BME280;5279;42.048;24.638;2022-11-15T09:34:59;97896.78;;;27.18;28.81
10464;BME280;5279;42.048;24.638;2022-11-15T09:37:26;97890.81;;;27.04;28.68
10464;BME280;5279;42.048;24.638;2022-11-15T09:39:53;97892.94;;;27.31;28.39
10464;BME280;5279;42.048;24.638;2022-11-15T09:42:41;97895.78;;;27.36;28.64
10464;BME280;5279;42.048;24.638;2022-11-15T09:45:18;97892.03;;;27.70;28.29
10464;BME280;5279;42.048;24.638;2022-11-15T09:48:00;97889.50;;;27.80;28.41
10464;BME280;5279;42.048;24.638;2022-11-15T09:50:34;97894.13;;;28.13;28.21
10464;BME280;5279;42.048;24.638;2022-11-15T09:53:03;97895.47;;;27.49;28.18
10464;BME280;5279;42.048;24.638;2022-11-15T09:55:36;97884.38;;;27.67;27.83
10464;BME280;5279;42.048;24.638;2022-11-15T09:58:18;97895.78;;;28.69;27.03
10464;BME280;5279;42.048;24.638;2022-11-15T10:00:51;97881.56;;;27.95;27.28
10464;BME280;5279;42.048;24.638;2022-11-15T10:03:24;97870.47;;;28.95;26.68
10464;BME280;5279;42.048;24.638;2022-11-15T10:06:01;97866.81;;;29.33;26.19
10464;BME280;5279;42.048;24.638;2022-11-15T10:08:54;97869.50;;;29.06;26.18
10464;BME280;5279;42.048;24.638;2022-11-15T10:11:25;97854.50;;;28.44;26.61
10464;BME280;5279;42.048;24.638;2022-11-15T10:13:56;97859.59;;;29.00;27.07
10464;BME280;5279;42.048;24.638;2022-11-15T10:16:59;97856.31;;;28.98;26.69
10464;BME280;5279;42.048;24.638;2022-11-15T10:19:35;97852.03;;;28.64;26.69
10464;BME280;5279;42.048;24.638;2022-11-15T10:22:16;97846.38;;;28.87;26.39
10464;BME280;5279;42.048;24.638;2022-11-15T10:25:16;97848.81;;;29.96;25.20
10464;BME280;5279;42.048;24.638;2022-11-15T10:27:47;97834.81;;;29.87;25.57
10464;BME280;5279;42.048;24.638;2022-11-15T10:30:18;97833.28;;;28.89;26.19
10464;BME280;5279;42.048;24.638;2022-11-15T10:32:48;97829.41;;;29.34;25.77
10464;BME280;5279;42.048;24.638;2022-11-15T10:35:18;97824.03;;;29.17;25.95
10464;BME280;5279;42.048;24.638;2022-11-15T10:37:46;97817.09;;;29.04;25.71
10464;BME280;5279;42.048;24.638;2022-11-15T10:40:17;97816.69;;;29.76;25.15
10464;BME280;5279;42.048;24.638;2022-11-15T10:42:45;97819.69;;;28.94;25.72
10464;BME280;5279;42.048;24.638;2022-11-15T10:45:30;97814.78;;;29.18;25.70
10464;BME280;5279;42.048;24.638;2022-11-15T10:48:23;97809.78;;;29.37;25.86
10464;BME280;5279;42.048;24.638;2022-11-15T10:50:52;97809.16;;;29.88;25.35
10464;BME280;5279;42.048;24.638;2022-11-15T10:53:28;97811.31;;;29.86;24.89
10464;BME280;5279;42.048;24.638;2022-11-15T10:55:59;97795.22;;;30.37;24.89
10464;BME280;5279;42.048;24.638;2022-11-15T10:58:36;97791.06;;;30.29;24.70
10464;BME280;5279;42.048;24.638;2022-11-15T11:01:12;97785.03;;;30.89;23.78
10464;BME280;5279;42.048;24.638;2022-11-15T11:03:42;97786.94;;;30.88;23.75
10464;BME280;5279;42.048;24.638;2022-11-15T11:06:11;97787.63;;;31.66;22.71
10464;BME280;5279;42.048;24.638;2022-11-15T11:08:54;97776.09;;;31.39;23.14
10464;BME280;5279;42.048;24.638;2022-11-15T11:11:21;97777.41;;;30.96;23.67
10464;BME280;5279;42.048;24.638;2022-11-15T11:13:48;97772.13;;;30.79;23.79
10464;BME280;5279;42.048;24.638;2022-11-15T11:16:42;97771.97;;;31.11;23.26
10464;BME280;5279;42.048;24.638;2022-11-15T11:19:39;97760.50;;;31.70;23.22
10464;BME280;5279;42.048;24.638;2022-11-15T11:22:18;97754.25;;;33.03;21.80
10464;BME280;5279;42.048;24.638;2022-11-15T11:24:55;97753.56;;;33.65;21.06
10464;BME280;5279;42.048;24.638;2022-11-15T11:27:34;97756.81;;;33.67;21.51
10464;BME280;5279;42.048;24.638;2022-11-15T11:30:08;97745.50;;;33.73;20.88
10464;BME280;5279;42.048;24.638;2022-11-15T11:32:50;97740.97;;;34.11;20.25
10464;BME280;5279;42.048;24.638;2022-11-15T11:35:27;97742.69;;;33.11;21.26
10464;BME280;5279;42.048;24.638;2022-11-15T11:38:07;97726.84;;;32.92;21.38
10464;BME280;5279;42.048;24.638;2022-11-15T11:40:42;97730.28;;;31.90;22.60
10464;BME280;5279;42.048;24.638;2022-11-15T11:43:19;97715.97;;;32.77;21.51
10464;BME280;5279;42.048;24.638;2022-11-15T11:46:02;97718.50;;;32.05;22.12
10464;BME280;5279;42.048;24.638;2022-11-15T11:48:41;97713.06;;;33.03;21.68
10464;BME280;5279;42.048;24.638;2022-11-15T11:51:15;97712.22;;;31.84;22.61
10464;BME280;5279;42.048;24.638;2022-11-15T11:53:47;97722.94;;;32.60;22.03
10464;BME280;5279;42.048;24.638;2022-11-15T11:56:24;97716.63;;;33.08;21.57
10464;BME280;5279;42.048;24.638;2022-11-15T11:58:53;97710.00;;;33.77;21.04
10464;BME280;5279;42.048;24.638;2022-11-15T12:01:23;97702.50;;;33.53;21.05
10464;BME280;5279;42.048;24.638;2022-11-15T12:03:55;97694.53;;;33.81;20.60
10464;BME280;5279;42.048;24.638;2022-11-15T12:06:31;97666.81;;;33.48;20.71
10464;BME280;5279;42.048;24.638;2022-11-15T12:09:02;97687.84;;;33.34;21.23
10464;BME280;5279;42.048;24.638;2022-11-15T12:11:36;97692.38;;;33.78;20.68
10464;BME280;5279;42.048;24.638;2022-11-15T12:14:16;97682.19;;;33.21;21.01
10464;BME280;5279;42.048;24.638;2022-11-15T12:16:45;97677.34;;;32.69;21.52
10464;BME280;5279;42.048;24.638;2022-11-15T12:19:12;97663.19;;;31.77;22.24
10464;BME280;5279;42.048;24.638;2022-11-15T12:21:43;97665.09;;;32.90;21.67
10464;BME280;5279;42.048;24.638;2022-11-15T12:24:15;97658.00;;;33.23;21.18
10464;BME280;5279;42.048;24.638;2022-11-15T12:26:49;97655.56;;;32.82;21.15
10464;BME280;5279;42.048;24.638;2022-11-15T12:29:23;97656.09;;;32.84;21.16
10464;BME280;5279;42.048;24.638;2022-11-15T12:31:54;97655.88;;;33.15;21.39
10464;BME280;5279;42.048;24.638;2022-11-15T12:34:46;97642.88;;;33.78;20.48
10464;BME280;5279;42.048;24.638;2022-11-15T12:37:50;97655.13;;;32.65;21.74
10464;BME280;5279;42.048;24.638;2022-11-15T12:41:11;97657.66;;;32.57;21.52
10464;BME280;5279;42.048;24.638;2022-11-15T12:43:37;97642.75;;;32.73;21.34
10464;BME280;5279;42.048;24.638;2022-11-15T12:46:08;97644.59;;;32.82;21.36
10464;BME280;5279;42.048;24.638;2022-11-15T12:48:58;97641.88;;;32.28;21.98
10464;BME280;5279;42.048;24.638;2022-11-15T12:54:55;97631.59;;;32.05;21.90
10464;BME280;5279;42.048;24.638;2022-11-15T12:57:39;97628.72;;;31.56;22.57
10464;BME280;5279;42.048;24.638;2022-11-15T13:06:44;97607.13;;;31.29;22.99
10464;BME280;5279;42.048;24.638;2022-11-15T13:12:51;97606.56;;;30.77;23.48
10464;BME280;5279;42.048;24.638;2022-11-15T13:15:36;97608.47;;;29.69;24.17
10464;BME280;5279;42.048;24.638;2022-11-15T13:18:33;97607.13;;;29.24;25.00
10464;BME280;5279;42.048;24.638;2022-11-15T13:21:17;97596.59;;;30.05;24.31
10464;BME280;5279;42.048;24.638;2022-11-15T13:24:02;97588.69;;;30.09;23.97
10464;BME280;5279;42.048;24.638;2022-11-15T13:26:30;97586.94;;;29.31;24.76
10464;BME280;5279;42.048;24.638;2022-11-15T13:28:59;97592.81;;;27.95;26.65
10464;BME280;5279;42.048;24.638;2022-11-15T13:31:29;97595.34;;;27.80;26.78
10464;BME280;5279;42.048;24.638;2022-11-15T13:34:00;97605.34;;;27.96;26.99
10464;BME280;5279;42.048;24.638;2022-11-15T13:36:29;97598.97;;;28.07;26.65
10464;BME280;5279;42.048;24.638;2022-11-15T13:39:00;97596.41;;;28.01;26.63